Time;durP1;ratioP1;P1;durP2;ratioP2;P2;SDS_P1;SDS_P2;PMS_P1;PMS_P2;Temp;Humidity;BMP_temperature;BMP_pressure;BME280_temperature;BME280_humidity;BME280_pressure;Samples;Min_cycle;Max_cycle;Signal;HPM_P1;HPM_P2
2023/01/02 00:02:15;;;;;;;25.40;12.77;;;;;;;;;;5029039;28;20037;-66
2023/01/02 00:04:41;;;;;;;18.33;11.50;;;;;;;;;;5029402;28;20029;-66
2023/01/02 00:07:07;;;;;;;22.75;11.77;;;;;;;;;;5029659;28;20040;-66
2023/01/02 00:09:33;;;;;;;24.60;12.48;;;;;;;;;;5022852;28;20045;-66
2023/01/02 00:11:59;;;;;;;24.88;12.90;;;;;;;;;;5028120;28;20045;-66
2023/01/02 00:14:25;;;;;;;22.42;11.85;;;;;;;;;;5031110;28;20513;-66
2023/01/02 00:16:51;;;;;;;25.02;12.75;;;;;;;;;;5021888;28;20038;-66
2023/01/02 00:19:17;;;;;;;22.70;12.73;;;;;;;;;;5018915;28;20064;-65
2023/01/02 00:21:43;;;;;;;28.10;12.70;;;;;;;;;;5028247;28;20488;-66
2023/01/02 00:24:09;;;;;;;24.95;12.35;;;;;;;;;;5027913;28;20044;-66
2023/01/02 00:26:35;;;;;;;27.60;12.13;;;;;;;;;;5022965;28;20060;-66
2023/01/02 00:29:02;;;;;;;27.15;12.98;;;;;;;;;;5029753;28;20487;-66
2023/01/02 00:31:28;;;;;;;27.90;13.73;;;;;;;;;;5029517;28;20491;-65
2023/01/02 00:33:54;;;;;;;23.70;13.00;;;;;;;;;;5023074;28;20128;-66
2023/01/02 00:36:20;;;;;;;24.55;12.55;;;;;;;;;;5030381;28;20513;-66
2023/01/02 00:38:46;;;;;;;23.65;13.90;;;;;;;;;;5020382;28;20041;-66
2023/01/02 00:41:12;;;;;;;32.13;14.70;;;;;;;;;;5025739;28;20042;-66
2023/01/02 00:43:38;;;;;;;24.08;13.88;;;;;;;;;;5027955;28;20466;-66
2023/01/02 00:46:05;;;;;;;27.88;15.02;;;;;;;;;;5030520;28;20029;-66
2023/01/02 00:48:31;;;;;;;28.42;13.65;;;;;;;;;;5029097;28;20037;-66
2023/01/02 00:50:57;;;;;;;23.35;13.25;;;;;;;;;;5028907;28;20694;-66
2023/01/02 00:53:23;;;;;;;30.02;15.25;;;;;;;;;;5026356;28;20120;-65
2023/01/02 00:55:49;;;;;;;26.35;14.70;;;;;;;;;;5027103;28;20116;-66
2023/01/02 00:58:15;;;;;;;25.00;14.18;;;;;;;;;;5026321;28;20039;-65
2023/01/02 01:00:41;;;;;;;26.05;13.27;;;;;;;;;;5021556;28;20033;-66
2023/01/02 01:03:07;;;;;;;24.33;14.65;;;;;;;;;;5025905;28;20068;-66
2023/01/02 01:05:33;;;;;;;28.00;13.82;;;;;;;;;;5033820;28;20132;-66
2023/01/02 01:07:59;;;;;;;25.25;14.38;;;;;;;;;;5028919;28;20042;-65
2023/01/02 01:10:25;;;;;;;27.95;14.23;;;;;;;;;;5022396;28;20046;-66
2023/01/02 01:12:52;;;;;;;24.63;13.45;;;;;;;;;;5031345;28;20048;-66
2023/01/02 01:15:18;;;;;;;22.30;13.23;;;;;;;;;;5035061;28;20057;-66
2023/01/02 01:17:44;;;;;;;21.52;11.43;;;;;;;;;;5034610;28;20041;-66
2023/01/02 01:20:10;;;;;;;23.83;10.90;;;;;;;;;;5034143;28;20052;-65
2023/01/02 01:22:36;;;;;;;25.17;12.77;;;;;;;;;;5032353;28;20033;-66
2023/01/02 01:25:02;;;;;;;26.30;11.93;;;;;;;;;;5027334;28;20034;-65
2023/01/02 01:27:28;;;;;;;29.58;13.32;;;;;;;;;;5026612;28;20049;-66
2023/01/02 01:29:54;;;;;;;22.13;12.80;;;;;;;;;;5034298;28;20041;-66
2023/01/02 01:32:20;;;;;;;23.00;12.27;;;;;;;;;;5031941;28;20125;-66
2023/01/02 01:34:46;;;;;;;25.95;12.55;;;;;;;;;;5023842;28;20041;-66
2023/01/02 01:37:12;;;;;;;26.55;13.15;;;;;;;;;;5027697;28;20127;-66
2023/01/02 01:39:38;;;;;;;24.52;11.55;;;;;;;;;;5021540;28;20038;-66
2023/01/02 01:42:04;;;;;;;19.95;11.55;;;;;;;;;;5034000;28;20053;-66
2023/01/02 01:44:41;;;;;;;22.17;12.13;;;;;;;;;;5033391;28;20117;-66
2023/01/02 01:49:59;;;;;;;23.27;10.90;;;;;;;;;;5052770;28;20128;-62
2023/01/02 01:52:28;;;;;;;22.20;12.20;;;;;;;;;;5049684;28;20048;-62
2023/01/02 01:54:57;;;;;;;19.83;11.18;;;;;;;;;;5052241;28;20037;-62
2023/01/02 01:57:27;;;;;;;21.30;11.20;;;;;;;;;;5052717;28;20067;-62
2023/01/02 01:59:54;;;;;;;19.13;10.88;;;;;;;;;;5071592;28;20404;-62
2023/01/02 02:02:21;;;;;;;20.48;11.90;;;;;;;;;;5059564;28;20441;-62
2023/01/02 02:04:47;;;;;;;22.10;11.07;;;;;;;;;;5065398;28;20037;-62
2023/01/02 02:07:13;;;;;;;21.10;10.48;;;;;;;;;;5065438;28;20482;-62
2023/01/02 02:09:42;;;;;;;27.38;11.35;;;;;;;;;;5063523;28;20405;-62
2023/01/02 02:12:08;;;;;;;22.60;10.75;;;;;;;;;;5067207;28;20037;-62
2023/01/02 02:14:34;;;;;;;21.20;11.55;;;;;;;;;;5060736;28;20045;-62
2023/01/02 02:17:06;;;;;;;21.15;11.70;;;;;;;;;;5060868;28;20565;-62
2023/01/02 02:19:45;;;;;;;22.38;11.07;;;;;;;;;;5057520;28;20041;-62
2023/01/02 02:22:20;;;;;;;21.77;10.48;;;;;;;;;;5062405;28;20078;-62
2023/01/02 02:25:01;;;;;;;21.02;10.13;;;;;;;;;;5071928;28;20066;-62
2023/01/02 02:27:30;;;;;;;21.23;10.70;;;;;;;;;;5060454;28;20043;-62
2023/01/02 02:30:02;;;;;;;16.95;10.00;;;;;;;;;;5066952;28;20082;-62
2023/01/02 02:32:35;;;;;;;19.63;9.73;;;;;;;;;;5066195;28;20045;-62
2023/01/02 02:35:20;;;;;;;21.13;9.57;;;;;;;;;;5063612;28;20048;-62
2023/01/02 02:37:48;;;;;;;24.42;9.73;;;;;;;;;;5064258;28;20068;-62
2023/01/02 02:40:19;;;;;;;18.73;9.15;;;;;;;;;;5062036;28;20099;-62
2023/01/02 02:43:03;;;;;;;19.57;8.83;;;;;;;;;;5063741;28;20040;-62
2023/01/02 02:45:34;;;;;;;15.07;7.82;;;;;;;;;;5066838;28;20482;-62
2023/01/02 02:48:00;;;;;;;19.58;9.35;;;;;;;;;;5066867;28;20029;-62
2023/01/02 02:50:32;;;;;;;18.88;9.15;;;;;;;;;;5060262;28;20044;-62
2023/01/02 02:53:18;;;;;;;16.67;8.60;;;;;;;;;;5052857;28;20045;-63
2023/01/02 02:55:45;;;;;;;16.02;8.50;;;;;;;;;;5051835;28;20071;-62
2023/01/02 02:58:12;;;;;;;17.48;9.10;;;;;;;;;;5065238;28;20123;-63
2023/01/02 03:00:38;;;;;;;17.80;8.35;;;;;;;;;;5068200;28;20040;-62
2023/01/02 03:03:21;;;;;;;16.08;8.20;;;;;;;;;;5067904;28;20047;-62
2023/01/02 03:05:59;;;;;;;23.10;8.50;;;;;;;;;;5066120;28;20532;-62
2023/01/02 03:08:32;;;;;;;15.88;8.27;;;;;;;;;;5052160;28;20029;-62
2023/01/02 03:10:59;;;;;;;17.35;7.53;;;;;;;;;;5057718;28;20044;-62
2023/01/02 03:13:35;;;;;;;15.40;7.50;;;;;;;;;;5066720;28;20075;-62
2023/01/02 03:16:19;;;;;;;17.10;7.95;;;;;;;;;;5067428;28;20047;-62
2023/01/02 03:18:45;;;;;;;17.58;7.38;;;;;;;;;;5060448;28;20406;-62
2023/01/02 03:21:17;;;;;;;21.25;8.20;;;;;;;;;;5066824;28;20037;-62
2023/01/02 03:23:45;;;;;;;18.17;8.43;;;;;;;;;;5062514;28;20045;-62
2023/01/02 03:26:12;;;;;;;16.02;8.27;;;;;;;;;;5059407;28;20039;-62
2023/01/02 03:28:40;;;;;;;18.13;7.78;;;;;;;;;;5068474;28;20054;-62
2023/01/02 03:31:08;;;;;;;18.40;8.23;;;;;;;;;;5049246;28;20410;-62
2023/01/02 03:33:36;;;;;;;19.20;8.30;;;;;;;;;;5063159;28;20044;-62
2023/01/02 03:36:09;;;;;;;20.85;8.05;;;;;;;;;;5055467;28;20040;-62
2023/01/02 03:38:36;;;;;;;20.42;8.35;;;;;;;;;;5063399;28;20128;-62
2023/01/02 03:41:06;;;;;;;17.38;7.57;;;;;;;;;;5054455;28;20058;-62
2023/01/02 03:43:34;;;;;;;18.63;8.63;;;;;;;;;;5069213;28;20063;-62
2023/01/02 03:46:06;;;;;;;17.73;8.43;;;;;;;;;;5057392;28;20076;-62
2023/01/02 03:48:38;;;;;;;17.83;8.02;;;;;;;;;;5057506;28;20160;-62
2023/01/02 03:51:04;;;;;;;15.88;8.20;;;;;;;;;;5062813;28;20490;-63
2023/01/02 03:53:31;;;;;;;19.77;8.10;;;;;;;;;;5068975;28;20043;-63
2023/01/02 03:56:16;;;;;;;16.65;8.05;;;;;;;;;;5052056;28;20048;-62
2023/01/02 03:58:55;;;;;;;15.13;6.85;;;;;;;;;;5066393;28;20041;-62
2023/01/02 04:01:26;;;;;;;13.30;7.30;;;;;;;;;;5058073;28;20040;-62
2023/01/02 04:03:57;;;;;;;18.58;8.02;;;;;;;;;;5060186;28;20071;-62
2023/01/02 04:06:31;;;;;;;17.38;7.55;;;;;;;;;;5055452;28;20127;-62
2023/01/02 04:09:04;;;;;;;16.45;7.97;;;;;;;;;;5070318;28;20394;-62
2023/01/02 04:11:31;;;;;;;15.95;8.00;;;;;;;;;;5069844;28;20044;-62
2023/01/02 04:13:59;;;;;;;14.40;7.47;;;;;;;;;;5067054;28;20040;-62
2023/01/02 04:16:27;;;;;;;17.23;7.88;;;;;;;;;;5052260;28;20049;-63
2023/01/02 04:19:19;;;;;;;13.75;7.43;;;;;;;;;;5065351;28;20510;-62
2023/01/02 04:21:46;;;;;;;18.00;8.00;;;;;;;;;;5060681;28;20078;-62
2023/01/02 04:24:17;;;;;;;18.58;7.97;;;;;;;;;;5061207;28;20048;-62
2023/01/02 04:26:46;;;;;;;16.70;7.65;;;;;;;;;;5068734;28;20044;-62
2023/01/02 04:29:12;;;;;;;15.77;7.43;;;;;;;;;;5060141;28;20052;-62
2023/01/02 04:31:44;;;;;;;18.27;6.97;;;;;;;;;;5054255;28;20067;-62
2023/01/02 04:34:12;;;;;;;15.82;6.57;;;;;;;;;;5059248;28;20041;-63
2023/01/02 04:36:39;;;;;;;16.98;7.05;;;;;;;;;;5057871;28;20040;-63
2023/01/02 04:39:05;;;;;;;14.43;6.95;;;;;;;;;;5056482;28;20120;-62
2023/01/02 04:41:32;;;;;;;14.95;7.13;;;;;;;;;;5063161;28;20044;-62
2023/01/02 04:43:59;;;;;;;15.55;7.30;;;;;;;;;;5060725;28;20508;-62
2023/01/02 04:46:25;;;;;;;12.82;5.93;;;;;;;;;;5069861;28;20132;-62
2023/01/02 04:48:51;;;;;;;17.52;6.82;;;;;;;;;;5067631;28;20033;-62
2023/01/02 04:51:18;;;;;;;13.88;6.18;;;;;;;;;;5057614;28;20047;-62
2023/01/02 04:53:46;;;;;;;13.20;5.85;;;;;;;;;;5058241;28;20050;-62
2023/01/02 04:56:12;;;;;;;16.17;6.75;;;;;;;;;;5066239;28;20047;-62
2023/01/02 04:58:38;;;;;;;12.80;6.55;;;;;;;;;;5070097;28;20036;-62
2023/01/02 05:01:11;;;;;;;12.10;5.45;;;;;;;;;;5057435;28;20048;-62
2023/01/02 05:03:40;;;;;;;14.10;5.88;;;;;;;;;;5052433;28;20066;-62
2023/01/02 05:06:07;;;;;;;10.13;5.70;;;;;;;;;;5052543;28;20087;-62
2023/01/02 05:08:33;;;;;;;14.55;6.72;;;;;;;;;;5070784;28;20036;-62
2023/01/02 05:11:04;;;;;;;12.88;6.20;;;;;;;;;;5067049;28;20127;-62
2023/01/02 05:13:30;;;;;;;;;;;;;;;;;;5062062;28;20044;-62
2023/01/02 05:15:56;;;;;;;14.18;5.82;;;;;;;;;;5067505;28;20472;-62
2023/01/02 05:18:22;;;;;;;12.43;5.72;;;;;;;;;;5055730;28;20119;-62
2023/01/02 05:20:48;;;;;;;12.98;5.35;;;;;;;;;;5054037;28;20124;-62
2023/01/02 05:25:59;;;;;;;10.23;5.20;;;;;;;;;;5050993;28;20087;-63
2023/01/02 05:28:25;;;;;;;14.82;6.63;;;;;;;;;;5060798;28;20043;-62
2023/01/02 05:30:51;;;;;;;13.18;6.53;;;;;;;;;;5054495;28;20048;-63
2023/01/02 05:33:17;;;;;;;13.32;6.30;;;;;;;;;;5062444;28;20167;-63
2023/01/02 05:35:43;;;;;;;14.38;6.45;;;;;;;;;;5051695;28;20044;-62
2023/01/02 05:38:09;;;;;;;14.27;6.38;;;;;;;;;;5057963;28;20045;-62
2023/01/02 05:40:35;;;;;;;13.52;6.05;;;;;;;;;;5062900;28;20091;-62
2023/01/02 05:43:00;;;;;;;15.13;6.15;;;;;;;;;;5065428;28;20033;-62
2023/01/02 05:45:27;;;;;;;13.63;6.15;;;;;;;;;;5050705;28;20033;-62
2023/01/02 05:47:54;;;;;;;12.02;6.25;;;;;;;;;;5065319;28;20123;-61
2023/01/02 05:50:20;;;;;;;12.65;6.07;;;;;;;;;;5055362;28;20141;-62
2023/01/02 05:52:45;;;;;;;13.70;5.88;;;;;;;;;;5071136;28;20043;-62
2023/01/02 05:55:11;;;;;;;14.13;5.93;;;;;;;;;;5069548;28;20036;-62
2023/01/02 05:57:37;;;;;;;14.90;6.60;;;;;;;;;;5062867;28;20132;-61
2023/01/02 06:00:03;;;;;;;17.55;6.65;;;;;;;;;;5057724;28;20043;-61
2023/01/02 06:02:29;;;;;;;12.82;6.28;;;;;;;;;;5063911;28;20457;-62
2023/01/02 06:04:55;;;;;;;12.43;6.28;;;;;;;;;;5053740;28;20115;-62
2023/01/02 06:07:21;;;;;;;9.88;5.68;;;;;;;;;;5054051;28;20043;-62
2023/01/02 06:09:47;;;;;;;11.73;5.28;;;;;;;;;;5071080;28;20354;-62
2023/01/02 06:12:13;;;;;;;12.13;5.63;;;;;;;;;;5069905;28;20048;-60
2023/01/02 06:14:39;;;;;;;12.07;5.80;;;;;;;;;;5060421;28;20065;-61
2023/01/02 06:17:05;;;;;;;11.20;5.88;;;;;;;;;;5057656;28;20579;-61
2023/01/02 06:19:31;;;;;;;13.48;5.72;;;;;;;;;;5066340;28;20090;-62
2023/01/02 06:21:57;;;;;;;11.55;5.68;;;;;;;;;;5067857;28;20041;-62
2023/01/02 06:24:23;;;;;;;13.60;5.97;;;;;;;;;;5071533;28;20037;-62
2023/01/02 06:26:49;;;;;;;12.90;5.78;;;;;;;;;;5066036;28;20479;-62
2023/01/02 06:29:15;;;;;;;13.73;5.68;;;;;;;;;;5067061;28;20120;-62
2023/01/02 06:31:41;;;;;;;11.43;5.20;;;;;;;;;;5056120;28;20037;-62
2023/01/02 06:34:09;;;;;;;10.82;4.40;;;;;;;;;;5054056;28;20120;-63
2023/01/02 06:36:35;;;;;;;11.43;4.53;;;;;;;;;;5059868;28;20482;-63
2023/01/02 06:39:01;;;;;;;10.82;5.57;;;;;;;;;;5071140;28;20541;-63
2023/01/02 06:41:27;;;;;;;10.25;5.93;;;;;;;;;;5070737;28;20489;-62
2023/01/02 06:43:53;;;;;;;11.50;5.70;;;;;;;;;;5067627;28;20120;-62
2023/01/02 06:46:21;;;;;;;10.25;5.47;;;;;;;;;;5063846;28;20068;-62
2023/01/02 06:48:47;;;;;;;14.38;6.07;;;;;;;;;;5070460;28;20064;-63
2023/01/02 06:51:14;;;;;;;9.82;5.55;;;;;;;;;;5065172;28;20528;-62
2023/01/02 06:53:41;;;;;;;11.40;5.63;;;;;;;;;;5071819;28;20082;-62
2023/01/02 06:56:08;;;;;;;11.77;5.97;;;;;;;;;;5066414;28;20041;-62
2023/01/02 06:58:34;;;;;;;7.60;4.80;;;;;;;;;;5069719;28;20105;-62
2023/01/02 07:01:02;;;;;;;11.02;5.45;;;;;;;;;;5065118;28;20040;-62
2023/01/02 07:03:28;;;;;;;9.02;5.10;;;;;;;;;;5064997;28;20036;-62
2023/01/02 07:05:54;;;;;;;11.60;5.60;;;;;;;;;;5064174;28;20036;-62
2023/01/02 07:08:20;;;;;;;15.15;5.93;;;;;;;;;;5058928;28;20313;-62
2023/01/02 07:10:46;;;;;;;12.18;5.50;;;;;;;;;;5054529;28;20056;-63
2023/01/02 07:13:12;;;;;;;13.43;5.93;;;;;;;;;;5052032;28;20421;-62
2023/01/02 07:15:38;;;;;;;15.60;6.53;;;;;;;;;;5061795;28;20092;-62
2023/01/02 07:18:04;;;;;;;13.45;6.28;;;;;;;;;;5065973;28;20047;-63
2023/01/02 07:20:30;;;;;;;12.77;6.78;;;;;;;;;;5065468;28;20063;-62
2023/01/02 07:22:56;;;;;;;12.57;6.25;;;;;;;;;;5066430;28;20063;-62
2023/01/02 07:25:22;;;;;;;11.13;5.43;;;;;;;;;;5055050;28;20060;-63
2023/01/02 07:27:48;;;;;;;7.03;4.45;;;;;;;;;;5064013;28;21349;-62
2023/01/02 07:30:14;;;;;;;6.07;4.00;;;;;;;;;;5066354;28;20387;-62
2023/01/02 07:32:42;;;;;;;3.88;2.38;;;;;;;;;;5066009;28;20524;-62
2023/01/02 07:35:08;;;;;;;2.83;2.35;;;;;;;;;;5055629;28;20040;-62
2023/01/02 07:37:34;;;;;;;3.80;2.42;;;;;;;;;;5064191;28;20041;-62
2023/01/02 07:40:00;;;;;;;3.42;2.38;;;;;;;;;;5070088;28;20059;-62
2023/01/02 07:42:26;;;;;;;3.33;2.47;;;;;;;;;;5063861;28;20040;-62
2023/01/02 07:44:52;;;;;;;2.30;2.10;;;;;;;;;;5060083;28;20063;-62
2023/01/02 07:47:18;;;;;;;2.95;2.50;;;;;;;;;;5053439;28;20555;-62
2023/01/02 07:49:44;;;;;;;3.70;2.70;;;;;;;;;;5090070;22;20048;-68
2023/01/02 07:52:10;;;;;;;4.00;2.90;;;;;;;;;;5061882;28;20465;-68
2023/01/02 07:54:37;;;;;;;2.95;2.63;;;;;;;;;;5072394;28;20041;-69
2023/01/02 07:57:03;;;;;;;5.15;3.50;;;;;;;;;;5079626;28;20078;-69
2023/01/02 07:59:29;;;;;;;3.25;2.90;;;;;;;;;;5077175;28;20086;-68
2023/01/02 08:01:55;;;;;;;4.35;3.50;;;;;;;;;;5087244;28;20028;-68
2023/01/02 08:04:22;;;;;;;4.13;3.53;;;;;;;;;;5082630;28;20090;-67
2023/01/02 08:06:47;;;;;;;5.20;4.13;;;;;;;;;;5084692;28;20039;-67
2023/01/02 08:09:13;;;;;;;5.60;4.53;;;;;;;;;;5081500;28;20037;-67
2023/01/02 08:11:39;;;;;;;5.28;4.50;;;;;;;;;;5059096;28;20524;-67
2023/01/02 08:14:05;;;;;;;5.95;5.07;;;;;;;;;;5082254;28;20036;-67
2023/01/02 08:16:31;;;;;;;5.82;4.68;;;;;;;;;;5086119;28;20040;-67
2023/01/02 08:18:57;;;;;;;7.43;5.47;;;;;;;;;;5088770;28;20076;-67
2023/01/02 08:21:25;;;;;;;6.95;5.00;;;;;;;;;;5078430;28;20636;-67
2023/01/02 08:23:51;;;;;;;7.95;5.45;;;;;;;;;;5084541;28;20062;-67
2023/01/02 08:26:17;;;;;;;9.02;5.80;;;;;;;;;;5084112;28;20036;-67
2023/01/02 08:28:43;;;;;;;6.47;5.07;;;;;;;;;;5078444;28;20108;-67
2023/01/02 08:31:11;;;;;;;9.02;5.10;;;;;;;;;;5083435;28;20437;-67
2023/01/02 08:33:37;;;;;;;8.38;4.55;;;;;;;;;;5084884;28;20044;-67
2023/01/02 08:36:03;;;;;;;5.53;3.75;;;;;;;;;;5061426;28;20570;-67
2023/01/02 08:38:29;;;;;;;4.80;3.65;;;;;;;;;;5065732;28;20766;-68
2023/01/02 08:40:57;;;;;;;6.35;3.38;;;;;;;;;;5088229;28;20043;-67
2023/01/02 08:43:23;;;;;;;6.68;3.58;;;;;;;;;;5090646;28;20494;-67
2023/01/02 08:45:49;;;;;;;6.05;3.55;;;;;;;;;;5077109;28;20462;-67
2023/01/02 08:48:15;;;;;;;6.18;3.17;;;;;;;;;;5084712;28;20119;-67
2023/01/02 08:50:41;;;;;;;7.22;3.38;;;;;;;;;;5084037;28;20067;-67
2023/01/02 08:53:07;;;;;;;4.78;3.13;;;;;;;;;;5064774;28;20075;-67
2023/01/02 08:55:33;;;;;;;5.13;3.42;;;;;;;;;;5082085;28;20409;-68
2023/01/02 08:57:59;;;;;;;3.45;2.33;;;;;;;;;;5087012;28;20036;-68
2023/01/02 09:00:25;;;;;;;4.07;1.98;;;;;;;;;;5087769;28;20047;-67
2023/01/02 09:02:51;;;;;;;5.85;2.55;;;;;;;;;;5079521;28;20042;-67
2023/01/02 09:05:17;;;;;;;4.78;2.55;;;;;;;;;;5087023;28;20093;-68
2023/01/02 09:07:43;;;;;;;5.30;2.55;;;;;;;;;;5077919;28;20040;-67
2023/01/02 09:10:10;;;;;;;3.85;2.03;;;;;;;;;;5080568;28;20094;-68
2023/01/02 09:12:36;;;;;;;2.55;1.88;;;;;;;;;;5075629;28;20040;-68
2023/01/02 09:15:02;;;;;;;2.60;1.50;;;;;;;;;;5064957;28;20044;-68
2023/01/02 09:17:28;;;;;;;3.00;1.55;;;;;;;;;;5081268;28;20079;-68
2023/01/02 09:19:54;;;;;;;2.13;1.30;;;;;;;;;;5072399;28;20080;-68
2023/01/02 09:22:20;;;;;;;3.10;1.70;;;;;;;;;;5080880;28;20062;-68
2023/01/02 09:24:46;;;;;;;2.13;1.50;;;;;;;;;;5084334;28;20032;-68
2023/01/02 09:27:12;;;;;;;5.07;1.60;;;;;;;;;;5086326;28;20482;-67
2023/01/02 09:29:38;;;;;;;3.40;2.03;;;;;;;;;;5083438;28;20047;-67
2023/01/02 09:32:04;;;;;;;2.92;2.10;;;;;;;;;;5085806;28;20032;-67
2023/01/02 09:34:30;;;;;;;2.92;1.83;;;;;;;;;;5086658;28;20055;-67
2023/01/02 09:36:56;;;;;;;3.05;1.60;;;;;;;;;;5085699;28;20489;-67
2023/01/02 09:39:22;;;;;;;2.10;1.38;;;;;;;;;;5085243;28;20032;-67
2023/01/02 09:41:57;;;;;;;2.88;1.85;;;;;;;;;;5086409;28;20032;-67
2023/01/02 09:44:33;;;;;;;2.35;1.60;;;;;;;;;;5083430;28;20036;-67
2023/01/02 09:47:05;;;;;;;2.08;1.60;;;;;;;;;;5083372;28;20175;-67
2023/01/02 09:49:33;;;;;;;4.10;1.88;;;;;;;;;;5085584;28;20031;-67
2023/01/02 09:51:59;;;;;;;3.85;1.50;;;;;;;;;;5089939;28;20032;-67
2023/01/02 09:54:30;;;;;;;2.47;1.60;;;;;;;;;;5085217;28;20043;-67
2023/01/02 09:57:16;;;;;;;3.38;1.55;;;;;;;;;;5086226;28;20035;-67
2023/01/02 09:59:52;;;;;;;2.60;1.33;;;;;;;;;;5063022;28;20410;-67
2023/01/02 10:02:30;;;;;;;2.65;1.23;;;;;;;;;;5081732;28;20036;-67
2023/01/02 10:04:59;;;;;;;2.83;1.52;;;;;;;;;;5074115;28;20044;-67
2023/01/02 10:07:44;;;;;;;2.72;1.55;;;;;;;;;;5081593;28;20501;-67
2023/01/02 10:10:13;;;;;;;2.83;1.52;;;;;;;;;;5086934;28;20115;-67
2023/01/02 10:12:53;;;;;;;2.95;1.67;;;;;;;;;;5074787;28;20652;-66
2023/01/02 10:15:21;;;;;;;2.28;1.42;;;;;;;;;;5091321;28;20036;-67
2023/01/02 10:17:49;;;;;;;3.58;1.15;;;;;;;;;;5092082;28;20070;-67
2023/01/02 10:20:18;;;;;;;2.65;1.70;;;;;;;;;;5083680;28;20051;-66
2023/01/02 10:22:47;;;;;;;3.83;2.03;;;;;;;;;;5082666;28;20036;-67
2023/01/02 10:25:15;;;;;;;3.05;1.80;;;;;;;;;;5094298;28;20040;-67
2023/01/02 10:27:49;;;;;;;4.88;1.85;;;;;;;;;;5093956;28;20529;-67
2023/01/02 10:30:28;;;;;;;2.38;1.58;;;;;;;;;;5085201;28;20039;-67
2023/01/02 10:33:08;;;;;;;2.53;1.80;;;;;;;;;;5083475;28;20124;-66
2023/01/02 10:35:40;;;;;;;2.90;1.42;;;;;;;;;;5089834;28;20424;-66
2023/01/02 10:38:09;;;;;;;3.70;2.05;;;;;;;;;;5092729;28;20047;-66
2023/01/02 10:40:36;;;;;;;3.00;1.90;;;;;;;;;;5094407;28;20068;-67
2023/01/02 10:43:02;;;;;;;3.15;1.60;;;;;;;;;;5084792;28;20028;-67
2023/01/02 10:45:29;;;;;;;3.08;1.70;;;;;;;;;;5083782;28;20254;-66
2023/01/02 10:47:55;;;;;;;2.70;2.00;;;;;;;;;;5085033;28;20160;-66
2023/01/02 10:50:22;;;;;;;5.15;2.10;;;;;;;;;;5086163;28;20566;-67
2023/01/02 10:52:52;;;;;;;3.40;1.83;;;;;;;;;;5063940;28;20101;-67
2023/01/02 10:55:29;;;;;;;4.38;2.05;;;;;;;;;;5077316;28;20074;-66
2023/01/02 10:58:01;;;;;;;5.10;2.03;;;;;;;;;;5088804;28;20101;-67
2023/01/02 11:00:28;;;;;;;5.90;2.10;;;;;;;;;;5090743;28;20474;-67
2023/01/02 11:02:58;;;;;;;3.97;2.20;;;;;;;;;;5091467;28;20047;-67
2023/01/02 11:05:26;;;;;;;6.03;2.50;;;;;;;;;;5084274;28;20039;-66
2023/01/02 11:07:52;;;;;;;4.47;2.30;;;;;;;;;;5082151;28;20238;-66
2023/01/02 11:10:29;;;;;;;4.10;2.20;;;;;;;;;;5083825;28;20036;-67
2023/01/02 11:12:55;;;;;;;3.58;2.25;;;;;;;;;;5090421;28;20088;-66
2023/01/02 11:15:29;;;;;;;4.57;2.28;;;;;;;;;;5087548;28;20400;-66
2023/01/02 11:17:56;;;;;;;3.75;2.30;;;;;;;;;;5084763;28;20040;-67
2023/01/02 11:20:29;;;;;;;3.53;2.25;;;;;;;;;;5076762;28;20517;-66
2023/01/02 11:22:57;;;;;;;3.60;2.13;;;;;;;;;;5088866;28;20174;-66
2023/01/02 11:25:36;;;;;;;5.32;2.50;;;;;;;;;;5078227;28;20032;-67
2023/01/02 11:28:02;;;;;;;4.25;1.95;;;;;;;;;;5060088;28;20047;-66
2023/01/02 11:30:31;;;;;;;2.70;1.90;;;;;;;;;;5083091;28;20382;-66
2023/01/02 11:33:18;;;;;;;4.35;1.92;;;;;;;;;;5080820;28;20173;-67
2023/01/02 11:36:03;;;;;;;4.20;2.08;;;;;;;;;;5092522;28;20716;-66
2023/01/02 11:38:49;;;;;;;4.43;2.20;;;;;;;;;;5083987;28;20044;-66
2023/01/02 11:41:21;;;;;;;3.88;2.00;;;;;;;;;;5083704;28;20410;-66
2023/01/02 11:43:50;;;;;;;5.15;1.88;;;;;;;;;;5082878;28;20028;-67
2023/01/02 11:46:26;;;;;;;4.47;1.88;;;;;;;;;;5078955;28;20052;-67
2023/01/02 11:48:55;;;;;;;8.00;2.70;;;;;;;;;;5088292;28;20037;-67
2023/01/02 11:51:21;;;;;;;3.90;2.30;;;;;;;;;;5085416;28;20370;-67
2023/01/02 11:53:48;;;;;;;3.80;1.90;;;;;;;;;;5075700;28;20048;-67
2023/01/02 11:56:19;;;;;;;7.78;2.60;;;;;;;;;;5077279;28;20055;-67
2023/01/02 11:58:45;;;;;;;6.75;2.55;;;;;;;;;;5078024;28;20433;-67
2023/01/02 12:01:29;;;;;;;6.03;3.63;;;;;;;;;;5085516;28;20049;-67
2023/01/02 12:03:56;;;;;;;5.55;3.70;;;;;;;;;;5080104;28;20096;-67
2023/01/02 12:06:23;;;;;;;5.93;3.80;;;;;;;;;;5090088;28;20516;-67
2023/01/02 12:09:04;;;;;;;7.63;4.57;;;;;;;;;;5080585;28;20123;-66
2023/01/02 12:11:30;;;;;;;8.15;4.40;;;;;;;;;;5085676;28;20482;-67
2023/01/02 12:14:15;;;;;;;7.10;5.35;;;;;;;;;;5079253;28;20046;-66
2023/01/02 12:16:50;;;;;;;6.45;4.45;;;;;;;;;;5081115;28;20044;-67
2023/01/02 12:19:16;;;;;;;6.80;4.38;;;;;;;;;;5080039;28;20036;-67
2023/01/02 12:21:51;;;;;;;6.50;3.85;;;;;;;;;;5085791;28;20047;-67
2023/01/02 12:24:17;;;;;;;6.20;3.80;;;;;;;;;;5089466;28;20036;-67
2023/01/02 12:27:04;;;;;;;7.28;4.40;;;;;;;;;;5088257;28;20192;-66
2023/01/02 12:29:30;;;;;;;7.22;4.20;;;;;;;;;;5081805;28;20043;-67
2023/01/02 12:32:11;;;;;;;6.10;3.55;;;;;;;;;;5084930;28;20039;-66
2023/01/02 12:34:55;;;;;;;4.57;3.20;;;;;;;;;;5070542;28;20045;-67
2023/01/02 12:37:33;;;;;;;7.30;3.55;;;;;;;;;;5079809;28;20044;-66
2023/01/02 12:39:59;;;;;;;8.32;2.92;;;;;;;;;;5082173;28;20101;-67
2023/01/02 12:42:55;;;;;;;6.78;2.78;;;;;;;;;;5079444;28;20044;-67
2023/01/02 12:45:27;;;;;;;11.43;2.30;;;;;;;;;;5079282;28;20075;-67
2023/01/02 12:48:04;;;;;;;5.88;2.38;;;;;;;;;;5086002;28;20043;-67
2023/01/02 12:50:36;;;;;;;4.85;2.33;;;;;;;;;;5080539;28;20044;-67
2023/01/02 12:53:21;;;;;;;9.27;2.47;;;;;;;;;;5084999;28;20440;-67
2023/01/02 12:55:59;;;;;;;8.00;2.40;;;;;;;;;;5085549;28;20666;-67
2023/01/02 12:58:54;;;;;;;7.07;2.05;;;;;;;;;;5078598;28;20035;-67
2023/01/02 13:01:23;;;;;;;7.38;2.30;;;;;;;;;;5019508;28;20069;-67
2023/01/02 13:03:52;;;;;;;11.10;2.30;;;;;;;;;;5087713;28;20101;-67
2023/01/02 13:06:22;;;;;;;6.90;2.00;;;;;;;;;;5074865;28;20044;-67
2023/01/02 13:08:50;;;;;;;8.50;2.20;;;;;;;;;;5094697;28;20048;-67
2023/01/02 13:11:20;;;;;;;9.45;2.20;;;;;;;;;;5092534;28;20043;-67
2023/01/02 13:13:46;;;;;;;9.13;2.22;;;;;;;;;;5089967;28;20035;-67
2023/01/02 13:16:14;;;;;;;10.30;2.30;;;;;;;;;;5090200;28;20044;-68
2023/01/02 13:18:48;;;;;;;9.23;2.60;;;;;;;;;;5083124;28;20461;-66
2023/01/02 13:21:25;;;;;;;7.55;2.72;;;;;;;;;;5075173;28;20093;-66
2023/01/02 13:23:52;;;;;;;10.35;2.33;;;;;;;;;;5087774;28;20036;-66
2023/01/02 13:26:22;;;;;;;10.55;2.67;;;;;;;;;;5077669;28;20040;-66
2023/01/02 13:29:05;;;;;;;7.25;2.42;;;;;;;;;;5071685;28;20044;-66
2023/01/02 13:31:32;;;;;;;11.15;3.35;;;;;;;;;;5090664;28;20044;-66
2023/01/02 13:34:05;;;;;;;68.72;42.38;;;;;;;;;;5091362;28;20037;-66
2023/01/02 13:36:37;;;;;;;54.33;31.50;;;;;;;;;;5088345;28;20085;-66
2023/01/02 13:39:16;;;;;;;25.65;16.27;;;;;;;;;;5067762;28;20259;-67
2023/01/02 13:44:36;;;;;;;13.40;7.40;;;;;;;;;;5081744;28;20040;-65
2023/01/02 13:47:19;;;;;;;22.38;10.68;;;;;;;;;;5086613;28;20032;-66
2023/01/02 13:49:48;;;;;;;9.55;6.45;;;;;;;;;;5095076;22;20118;-64
2023/01/02 13:52:16;;;;;;;8.90;3.40;;;;;;;;;;5030501;28;20049;-64
2023/01/02 13:55:02;;;;;;;13.43;4.47;;;;;;;;;;5027727;28;20037;-64
2023/01/02 13:57:28;;;;;;;19.70;8.50;;;;;;;;;;5018541;28;20037;-64
2023/01/02 13:59:58;;;;;;;31.55;19.20;;;;;;;;;;5026297;28;20364;-64
2023/01/02 14:02:24;;;;;;;35.53;18.45;;;;;;;;;;5026699;28;20041;-64
2023/01/02 14:04:50;;;;;;;17.05;7.65;;;;;;;;;;5034568;28;20048;-64
2023/01/02 14:07:22;;;;;;;16.30;7.20;;;;;;;;;;5031041;28;20050;-64
2023/01/02 14:10:07;;;;;;;12.68;5.22;;;;;;;;;;5031951;28;20491;-64
2023/01/02 14:12:40;;;;;;;11.45;6.65;;;;;;;;;;5027416;28;20025;-64
2023/01/02 14:15:14;;;;;;;11.55;4.07;;;;;;;;;;5025431;28;20041;-64
2023/01/02 14:17:52;;;;;;;14.30;3.05;;;;;;;;;;5025686;28;20037;-64
2023/01/02 14:20:18;;;;;;;18.92;8.52;;;;;;;;;;5028321;28;20403;-64
2023/01/02 14:22:55;;;;;;;54.25;34.78;;;;;;;;;;5028195;28;20072;-64
2023/01/02 14:25:21;;;;;;;22.48;9.75;;;;;;;;;;5032951;28;20492;-64
2023/01/02 14:27:53;;;;;;;11.10;4.68;;;;;;;;;;5009867;28;20378;-64
2023/01/02 14:30:30;;;;;;;11.75;3.50;;;;;;;;;;5028222;28;20041;-64
2023/01/02 14:32:57;;;;;;;14.50;5.18;;;;;;;;;;5029314;28;20049;-64
2023/01/02 14:35:25;;;;;;;12.20;5.70;;;;;;;;;;5028101;28;20522;-64
2023/01/02 14:37:53;;;;;;;13.32;8.73;;;;;;;;;;5008502;28;20116;-64
2023/01/02 14:40:22;;;;;;;14.88;6.88;;;;;;;;;;5030135;28;20045;-64
2023/01/02 14:45:43;;;;;;;8.25;3.78;;;;;;;;;;5028934;28;20042;-64
2023/01/02 14:48:11;;;;;;;7.55;3.45;;;;;;;;;;5013934;28;20045;-64
2023/01/02 14:50:40;;;;;;;9.73;3.65;;;;;;;;;;5025090;28;20048;-64
2023/01/02 14:53:16;;;;;;;7.45;3.50;;;;;;;;;;5023983;28;20038;-64
2023/01/02 14:55:42;;;;;;;10.38;4.20;;;;;;;;;;5029906;28;20411;-63
2023/01/02 14:58:14;;;;;;;9.57;3.80;;;;;;;;;;5027968;28;20079;-63